Time;durP1;ratioP1;P1;durP2;ratioP2;P2;SDS_P1;SDS_P2;PMS_P1;PMS_P2;Temp;Humidity;BMP_temperature;BMP_pressure;BME280_temperature;BME280_humidity;BME280_pressure;Samples;Min_cycle;Max_cycle;Signal;HPM_P1;HPM_P2
2021/08/08 00:02:06;;;;;;;3.43;1.17;;;;;;;;;;4978753;28;20447;-93
2021/08/08 00:04:34;;;;;;;0.87;0.80;;;13.80;99.90;;;;;;4975930;28;20435;-92
2021/08/08 00:07:04;;;;;;;3.60;1.33;;;;;;;;;;4972712;28;20454;-93
2021/08/08 00:09:31;;;;;;;3.03;1.27;;;;;;;;;;4982195;28;20434;-93
2021/08/08 00:11:58;;;;;;;2.10;1.20;;;;;;;;;;4996459;28;20457;-93
2021/08/08 00:14:25;;;;;;;4.00;1.30;;;;;;;;;;4988443;28;20552;-94
2021/08/08 00:16:53;;;;;;;2.30;1.37;;;;;;;;;;4973742;28;20450;-92
2021/08/08 00:19:20;;;;;;;2.97;1.13;;;;;;;;;;4976347;28;20575;-92
2021/08/08 00:21:49;;;;;;;1.77;0.80;;;14.20;99.90;;;;;;4972996;28;20461;-92
2021/08/08 00:24:16;;;;;;;6.00;1.50;;;;;;;;;;4976199;28;20457;-93
2021/08/08 00:26:43;;;;;;;2.97;1.20;;;;;;;;;;4973825;28;20470;-94
2021/08/08 00:29:12;;;;;;;1.33;1.10;;;;;;;;;;4972269;28;20926;-94
2021/08/08 00:31:39;;;;;;;2.40;1.03;;;;;;;;;;4974522;28;20485;-92
2021/08/08 00:34:06;;;;;;;2.13;1.20;;;;;;;;;;4977102;28;20525;-92
2021/08/08 00:36:35;;;;;;;2.27;1.10;;;;;;;;;;4977163;28;20461;-93
2021/08/08 00:39:05;;;;;;;1.70;1.17;;;13.90;99.90;;;;;;4975391;28;20489;-92
2021/08/08 00:41:32;;;;;;;2.33;1.10;;;;;;;;;;4976153;28;20450;-92
2021/08/08 00:43:59;;;;;;;4.30;1.00;;;;;;;;;;4977088;28;20789;-95
2021/08/08 00:46:26;;;;;;;1.40;1.30;;;;;;;;;;4975581;28;20484;-92
2021/08/08 00:48:53;;;;;;;5.07;1.20;;;;;;;;;;4975946;28;20431;-92
2021/08/08 00:51:21;;;;;;;1.93;0.73;;;;;;;;;;4977865;28;20934;-94
2021/08/08 00:53:51;;;;;;;1.53;1.03;;;;;;;;;;4978650;28;20508;-94
2021/08/08 00:56:20;;;;;;;2.00;1.30;;;13.90;99.90;;;;;;4979064;28;20946;-92
2021/08/08 00:58:47;;;;;;;2.30;1.00;;;;;;;;;;4977086;28;20465;-91
2021/08/08 01:01:16;;;;;;;0.93;0.87;;;13.90;99.90;;;;;;4976328;28;20812;-93
2021/08/08 01:03:44;;;;;;;1.37;1.20;;;13.90;99.90;;;;;;4979181;28;20461;-94
2021/08/08 01:06:16;;;;;;;2.00;1.10;;;13.90;99.90;;;;;;4975101;28;20447;-94
2021/08/08 01:08:46;;;;;;;1.97;1.07;;;14.10;99.90;;;;;;4977788;28;20453;-94
2021/08/08 01:11:13;;;;;;;1.57;0.90;;;;;;;;;;4978537;28;20813;-93
2021/08/08 01:13:42;;;;;;;2.50;0.90;;;13.80;99.90;;;;;;4978471;28;20485;-92
2021/08/08 01:16:10;;;;;;;4.90;1.30;;;12.80;99.90;;;;;;4978445;28;20450;-93
2021/08/08 01:18:38;;;;;;;4.17;1.60;;;13.70;99.90;;;;;;4974773;28;20442;-93
2021/08/08 01:21:06;;;;;;;3.67;1.40;;;13.70;99.90;;;;;;4978897;28;20457;-92
2021/08/08 01:23:35;;;;;;;4.57;0.90;;;13.60;99.90;;;;;;4973695;28;20465;-91
2021/08/08 01:26:04;;;;;;;2.00;1.27;;;13.80;99.90;;;;;;4973274;28;20458;-95
2021/08/08 01:28:31;;;;;;;1.93;0.90;;;;;;;;;;4978800;28;20450;-92
2021/08/08 01:30:58;;;;;;;1.10;1.00;;;;;;;;;;4978527;28;20458;-93
2021/08/08 01:33:26;;;;;;;3.23;1.50;;;;;;;;;;4977792;28;20470;-92
2021/08/08 01:35:53;;;;;;;3.20;1.00;;;13.60;99.90;;;;;;4978328;28;20466;-91
2021/08/08 01:38:21;;;;;;;6.13;1.00;;;;;;;;;;4974489;28;20481;-93
2021/08/08 01:40:55;;;;;;;1.90;1.13;;;13.70;99.90;;;;;;4977980;28;20455;-94
2021/08/08 01:43:29;;;;;;;1.33;1.00;;;13.90;99.90;;;;;;4977597;28;20450;-90
2021/08/08 01:46:03;;;;;;;1.13;1.03;;;14.00;99.90;;;;;;4978037;28;20480;-92
2021/08/08 01:48:31;;;;;;;4.63;0.97;;;14.00;99.90;;;;;;4974682;28;20431;-91
2021/08/08 01:50:58;;;;;;;0.80;0.70;;;;;;;;;;4972868;28;20817;-95
2021/08/08 01:53:25;;;;;;;2.13;1.00;;;;;;;;;;4976643;28;20458;-94
2021/08/08 01:55:53;;;;;;;0.80;0.70;;;;;;;;;;4975244;28;20446;-93
2021/08/08 01:58:20;;;;;;;2.03;1.40;;;;;;;;;;4976931;28;20788;-93
2021/08/08 02:00:51;;;;;;;1.20;1.00;;;13.80;99.90;;;;;;4974149;28;20458;-93
2021/08/08 02:03:18;;;;;;;3.50;1.20;;;;;;;;;;4972714;28;20458;-92
2021/08/08 02:05:45;;;;;;;1.00;0.90;;;;;;;;;;4972541;28;20500;-93
2021/08/08 02:08:12;;;;;;;1.87;1.00;;;;;;;;;;4976584;28;20822;-91
2021/08/08 02:10:40;;;;;;;1.13;0.80;;;;;;;;;;4977306;28;20457;-91
2021/08/08 02:13:07;;;;;;;4.10;0.90;;;;;;;;;;4973946;28;20466;-91
2021/08/08 02:15:34;;;;;;;0.70;0.70;;;;;;;;;;4973426;28;20497;-89
2021/08/08 02:18:02;;;;;;;3.63;1.00;;;13.70;99.90;;;;;;4973711;28;20456;-92
2021/08/08 02:20:29;;;;;;;7.47;1.20;;;;;;;;;;4972741;28;20438;-89
2021/08/08 02:22:57;;;;;;;2.83;0.97;;;;;;;;;;4972979;28;20461;-92
2021/08/08 02:25:24;;;;;;;1.50;1.00;;;;;;;;;;4974135;28;20466;-92
2021/08/08 02:27:51;;;;;;;5.97;1.40;;;;;;;;;;4977126;28;20463;-92
2021/08/08 02:30:18;;;;;;;0.70;0.57;;;;;;;;;;4976670;28;20454;-93
2021/08/08 02:32:45;;;;;;;1.47;1.10;;;;;;;;;;4976615;28;20485;-93
2021/08/08 02:35:13;;;;;;;2.07;0.80;;;;;;;;;;4976340;28;20497;-92
2021/08/08 02:37:41;;;;;;;1.53;1.03;;;;;;;;;;4975423;28;20446;-91
2021/08/08 02:40:08;;;;;;;2.17;1.10;;;13.60;99.90;;;;;;4976802;28;20474;-93
2021/08/08 02:42:35;;;;;;;2.10;1.20;;;;;;;;;;4971358;28;20458;-91
2021/08/08 02:45:03;;;;;;;2.83;0.80;;;;;;;;;;4974365;28;20491;-94
2021/08/08 02:47:30;;;;;;;1.47;1.03;;;;;;;;;;4973045;28;20490;-91
2021/08/08 02:49:57;;;;;;;1.10;0.90;;;;;;;;;;4976232;28;20936;-93
2021/08/08 02:52:26;;;;;;;2.30;1.23;;;13.20;99.90;;;;;;4975661;28;20458;-93
2021/08/08 02:54:53;;;;;;;1.07;0.97;;;;;;;;;;4972371;28;20554;-93
2021/08/08 02:57:20;;;;;;;0.90;0.80;;;;;;;;;;4980113;28;20442;-91
2021/08/08 02:59:47;;;;;;;2.70;1.30;;;;;;;;;;4996305;28;20478;-92
2021/08/08 03:02:14;;;;;;;3.13;1.00;;;;;;;;;;4992864;28;20450;-92
2021/08/08 03:04:41;;;;;;;4.63;1.40;;;;;;;;;;4976691;28;20439;-93
2021/08/08 03:07:08;;;;;;;2.23;1.03;;;;;;;;;;4975973;28;20457;-92
2021/08/08 03:09:37;;;;;;;3.63;1.47;;;13.50;99.90;;;;;;4972948;28;20474;-92
2021/08/08 03:12:04;;;;;;;3.67;1.53;;;;;;;;;;4976362;28;20451;-91
2021/08/08 03:14:31;;;;;;;3.90;1.10;;;;;;;;;;4975098;28;20565;-92
2021/08/08 03:16:58;;;;;;;3.77;1.10;;;;;;;;;;4975979;28;20938;-92
2021/08/08 03:19:25;;;;;;;2.50;1.20;;;;;;;;;;4972822;28;20480;-94
2021/08/08 03:21:53;;;;;;;2.20;0.90;;;;;;;;;;4971919;28;21152;-92
2021/08/08 03:24:20;;;;;;;1.27;0.80;;;;;;;;;;4975460;28;20450;-91
2021/08/08 03:26:48;;;;;;;1.63;1.20;;;13.40;99.90;;;;;;4975624;28;20446;-93
2021/08/08 03:29:15;;;;;;;2.10;1.17;;;;;;;;;;4970314;28;20465;-93
2021/08/08 03:31:42;;;;;;;9.00;1.10;;;;;;;;;;4975436;28;20442;-92
2021/08/08 03:34:09;;;;;;;2.00;1.20;;;;;;;;;;4975455;28;20441;-91
2021/08/08 03:36:36;;;;;;;1.53;1.00;;;;;;;;;;4975626;28;20458;-93
2021/08/08 03:39:03;;;;;;;2.60;1.13;;;;;;;;;;4970226;28;20458;-93
2021/08/08 03:41:31;;;;;;;1.20;1.10;;;;;;;;;;4975383;28;20438;-93
2021/08/08 03:43:59;;;;;;;4.67;1.40;;;13.20;99.90;;;;;;4975892;28;20438;-93
2021/08/08 03:46:26;;;;;;;2.80;1.30;;;;;;;;;;4975773;28;20986;-92
2021/08/08 03:48:53;;;;;;;2.53;1.40;;;;;;;;;;4975278;28;20457;-91
2021/08/08 03:51:20;;;;;;;1.47;1.20;;;;;;;;;;4975338;28;20968;-93
2021/08/08 03:53:47;;;;;;;6.67;1.07;;;;;;;;;;4976065;28;20446;-91
2021/08/08 03:56:15;;;;;;;2.47;1.10;;;;;;;;;;4976121;28;20493;-91
2021/08/08 03:58:42;;;;;;;10.80;1.30;;;;;;;;;;4981523;28;20446;-91
2021/08/08 04:01:10;;;;;;;4.40;1.10;;;12.90;99.90;;;;;;4983991;28;20454;-92
2021/08/08 04:03:37;;;;;;;3.53;1.40;;;;;;;;;;4986259;28;20450;-91
2021/08/08 04:06:04;;;;;;;1.47;1.20;;;;;;;;;;4987976;28;20446;-92
2021/08/08 04:08:31;;;;;;;2.10;1.10;;;;;;;;;;4984090;28;20462;-91
2021/08/08 04:10:58;;;;;;;3.13;1.50;;;;;;;;;;4989555;28;20457;-91
2021/08/08 04:13:26;;;;;;;1.43;0.80;;;;;;;;;;4984200;28;20457;-92
2021/08/08 04:15:53;;;;;;;2.57;1.40;;;;;;;;;;4983658;28;20500;-92
2021/08/08 04:18:21;;;;;;;4.83;1.17;;;12.70;99.90;;;;;;4976464;28;20454;-94
2021/08/08 04:20:48;;;;;;;3.10;1.30;;;;;;;;;;4897610;29;20461;-93
2021/08/08 04:23:17;;;;;;;2.63;1.27;;;;;;;;;;4897346;29;20759;-92
2021/08/08 04:25:44;;;;;;;3.30;1.40;;;;;;;;;;4897053;29;20496;-93
2021/08/08 04:28:11;;;;;;;11.73;1.57;;;;;;;;;;4900601;29;20438;-93
2021/08/08 04:30:38;;;;;;;1.57;1.30;;;;;;;;;;4900640;29;20430;-92
2021/08/08 04:33:05;;;;;;;1.50;1.40;;;12.70;99.90;;;;;;4900159;29;20485;-92
2021/08/08 04:35:34;;;;;;;2.10;1.50;;;12.80;99.90;;;;;;4896825;29;21129;-93
2021/08/08 04:38:01;;;;;;;2.37;1.13;;;12.80;99.90;;;;;;4907071;28;20465;-92
2021/08/08 04:40:29;;;;;;;2.20;0.77;;;;;;;;;;4975790;28;20454;-93
2021/08/08 04:42:56;;;;;;;5.07;1.10;;;;;;;;;;4973091;28;20473;-93
2021/08/08 04:45:23;;;;;;;2.27;1.33;;;;;;;;;;4975951;28;20454;-91
2021/08/08 04:47:50;;;;;;;2.13;1.20;;;;;;;;;;4978357;28;20484;-94
2021/08/08 04:50:18;;;;;;;3.03;1.17;;;;;;;;;;4975308;28;20441;-93
2021/08/08 04:52:47;;;;;;;1.77;1.00;;;13.00;99.90;;;;;;4977833;28;20457;-91
2021/08/08 04:55:14;;;;;;;3.00;1.63;;;;;;;;;;4978318;28;20497;-90
2021/08/08 04:57:42;;;;;;;3.07;1.13;;;;;;;;;;4977722;28;20449;-95
2021/08/08 05:00:11;;;;;;;1.00;0.90;;;13.10;99.90;;;;;;4978411;28;20457;-92
2021/08/08 05:02:44;;;;;;;2.50;1.37;;;13.20;99.90;;;;;;4973758;28;20450;-91
2021/08/08 05:05:12;;;;;;;3.50;1.23;;;;;;;;;;4943906;28;20942;-94
2021/08/08 05:07:39;;;;;;;1.70;1.17;;;;;;;;;;4974099;28;20512;-90
2021/08/08 05:10:10;;;;;;;3.03;1.33;;;13.50;99.90;;;;;;4974595;28;20450;-91
2021/08/08 05:12:37;;;;;;;1.37;1.00;;;;;;;;;;4957482;28;20524;-91
2021/08/08 05:15:05;;;;;;;6.40;1.97;;;13.60;99.90;;;;;;4996456;28;20489;-91
2021/08/08 05:17:32;;;;;;;2.30;0.77;;;;;;;;;;4997011;28;20445;-92
2021/08/08 05:19:59;;;;;;;1.63;1.10;;;;;;;;;;5004040;28;20452;-93
2021/08/08 05:22:26;;;;;;;1.60;1.33;;;;;;;;;;5003372;28;20449;-91
2021/08/08 05:24:54;;;;;;;2.80;1.40;;;;;;;;;;5005064;28;20472;-92
2021/08/08 05:27:22;;;;;;;6.43;1.30;;;13.70;99.90;;;;;;5001088;28;20449;-92
2021/08/08 05:29:49;;;;;;;2.87;1.13;;;;;;;;;;5001954;28;20448;-89
2021/08/08 05:32:16;;;;;;;3.37;0.90;;;;;;;;;;5004875;28;20460;-88
2021/08/08 05:34:44;;;;;;;1.60;1.40;;;;;;;;;;5000633;28;20448;-90
2021/08/08 05:37:11;;;;;;;1.70;1.07;;;;;;;;;;4982426;28;20539;-92
2021/08/08 05:39:38;;;;;;;1.50;1.00;;;;;;;;;;5001966;28;20449;-89
2021/08/08 05:42:05;;;;;;;0.70;0.60;;;;;;;;;;5001287;28;20447;-91
2021/08/08 05:44:37;;;;;;;0.70;0.60;;;14.70;99.90;;;;;;5005469;28;20453;-91
2021/08/08 05:47:05;;;;;;;2.43;1.10;;;;;;;;;;4996100;28;20477;-88
2021/08/08 05:49:33;;;;;;;2.93;1.07;;;;;;;;;;5003698;28;20481;-88
2021/08/08 05:52:22;;;;;;;1.03;0.70;;;15.60;99.90;;;;;;5002519;28;20802;-94
2021/08/08 05:54:49;;;;;;;2.23;0.67;;;;;;;;;;4999364;28;20991;-93
2021/08/08 05:57:16;;;;;;;2.83;0.70;;;;;;;;;;5000339;28;20849;-93
2021/08/08 05:59:44;;;;;;;1.00;0.90;;;15.80;99.90;;;;;;4994288;28;20856;-90
2021/08/08 06:02:16;;;;;;;2.37;0.70;;;16.00;99.90;;;;;;4995830;28;20453;-94
2021/08/08 06:04:43;;;;;;;1.10;0.60;;;;;;;;;;4995920;28;20445;-91
2021/08/08 06:07:10;;;;;;;0.80;0.50;;;;;;;;;;4991371;28;20453;-90
2021/08/08 06:09:37;;;;;;;1.20;0.60;;;;;;;;;;4996792;28;20461;-95
2021/08/08 06:12:07;;;;;;;6.03;0.80;;;;;;;;;;4995975;28;20445;-89
2021/08/08 06:14:35;;;;;;;2.07;0.77;;;16.50;99.90;;;;;;4994925;28;20475;-90
2021/08/08 06:17:04;;;;;;;1.33;0.70;;;17.00;99.90;;;;;;4993944;28;20512;-91
2021/08/08 06:19:31;;;;;;;1.93;0.67;;;;;;;;;;4985193;28;20473;-89
2021/08/08 06:21:58;;;;;;;0.93;0.53;;;;;;;;;;4986557;28;20500;-91
2021/08/08 06:24:26;;;;;;;0.73;0.60;;;;;;;;;;4988955;28;20446;-91
2021/08/08 06:26:53;;;;;;;2.70;0.80;;;;;;;;;;4987282;28;20446;-92
2021/08/08 06:29:25;;;;;;;1.80;0.70;;;;;;;;;;4987089;28;20460;-91
2021/08/08 06:31:53;;;;;;;1.80;0.77;;;17.20;99.90;;;;;;4985129;28;20532;-93
2021/08/08 06:34:24;;;;;;;1.60;0.80;;;17.20;99.90;;;;;;4985326;28;20842;-89
2021/08/08 06:36:51;;;;;;;2.97;0.80;;;;;;;;;;5003154;28;20491;-93
2021/08/08 06:39:18;;;;;;;2.30;0.50;;;;;;;;;;5005583;28;20821;-94
2021/08/08 06:41:45;;;;;;;1.00;0.77;;;;;;;;;;5002190;28;20445;-92
2021/08/08 06:44:13;;;;;;;1.10;0.80;;;;;;;;;;5003953;28;20954;-95
2021/08/08 06:46:41;;;;;;;0.70;0.60;;;;;;;;;;5000430;28;20940;-90
2021/08/08 06:49:08;;;;;;;0.90;0.63;;;;;;;;;;5004176;28;20445;-94
2021/08/08 06:51:36;;;;;;;3.57;0.70;;;17.90;99.90;;;;;;5004262;28;20964;-92
2021/08/08 06:54:06;;;;;;;1.23;0.87;;;18.00;99.90;;;;;;5001730;28;20945;-91
2021/08/08 06:56:33;;;;;;;1.37;0.60;;;;;;;;;;5004857;28;20488;-88
2021/08/08 06:59:00;;;;;;;2.50;0.83;;;;;;;;;;5001732;28;20959;-92
2021/08/08 07:01:28;;;;;;;2.50;0.80;;;;;;;;;;5003090;28;20441;-92
2021/08/08 07:03:55;;;;;;;2.27;1.00;;;;;;;;;;5002731;28;20437;-93
2021/08/08 07:06:27;;;;;;;1.70;0.93;;;;;;;;;;5002228;28;20842;-92
2021/08/08 07:08:57;;;;;;;1.80;0.90;;;17.90;99.90;;;;;;5001536;28;20480;-93
2021/08/08 07:11:24;;;;;;;1.17;0.70;;;;;;;;;;5011250;28;20443;-94
2021/08/08 07:13:51;;;;;;;3.03;1.23;;;;;;;;;;5011844;28;20444;-93
2021/08/08 07:16:19;;;;;;;1.63;0.87;;;;;;;;;;5014266;28;20476;-92
2021/08/08 07:18:46;;;;;;;2.40;0.87;;;;;;;;;;5013914;28;20448;-92
2021/08/08 07:21:13;;;;;;;0.87;0.70;;;;;;;;;;5014045;28;20451;-92
2021/08/08 07:23:40;;;;;;;1.53;1.03;;;;;;;;;;5012986;28;20444;-94
2021/08/08 07:26:08;;;;;;;1.10;0.60;;;18.10;99.90;;;;;;5014242;28;20459;-90
2021/08/08 07:28:36;;;;;;;1.97;1.00;;;;;;;;;;5013361;28;20449;-94
2021/08/08 07:31:03;;;;;;;1.43;1.17;;;;;;;;;;5013607;28;20465;-93
2021/08/08 07:33:33;;;;;;;2.27;0.80;;;19.30;99.90;;;;;;5024069;28;20544;-93
2021/08/08 07:36:00;;;;;;;1.20;0.77;;;;;;;;;;5022984;28;20491;-94
2021/08/08 07:38:27;;;;;;;3.57;1.20;;;;;;;;;;5029090;28;20443;-94
2021/08/08 07:40:54;;;;;;;1.70;0.70;;;;;;;;;;5024306;28;20460;-93
2021/08/08 07:43:24;;;;;;;3.17;0.70;;;19.60;99.90;;;;;;5026590;28;20433;-94
2021/08/08 07:45:51;;;;;;;1.70;0.63;;;;;;;;;;5017338;28;20932;-91
2021/08/08 07:48:18;;;;;;;1.83;0.80;;;;;;;;;;5016420;28;20449;-92
2021/08/08 07:50:45;;;;;;;1.97;0.90;;;;;;;;;;5017322;28;20468;-94
2021/08/08 07:53:13;;;;;;;1.23;0.80;;;;;;;;;;5014549;28;20943;-93
2021/08/08 07:55:40;;;;;;;0.93;0.80;;;;;;;;;;5022226;28;20440;-94
2021/08/08 07:58:08;;;;;;;4.27;0.90;;;;;;;;;;5016705;28;20428;-93
2021/08/08 08:00:36;;;;;;;4.40;0.97;;;18.80;99.90;;;;;;5020261;28;20460;-95
2021/08/08 08:03:03;;;;;;;0.53;0.43;;;;;;;;;;5014253;28;20472;-92
2021/08/08 08:05:31;;;;;;;1.80;0.90;;;;;;;;;;5017232;28;20436;-95
2021/08/08 08:07:58;;;;;;;2.10;0.77;;;;;;;;;;5017962;28;20452;-92
2021/08/08 08:10:25;;;;;;;1.40;0.80;;;;;;;;;;5017823;28;20449;-93
2021/08/08 08:12:52;;;;;;;2.33;1.00;;;;;;;;;;5015030;28;20448;-94
2021/08/08 08:15:19;;;;;;;0.87;0.77;;;;;;;;;;5015465;28;20479;-93
2021/08/08 08:17:49;;;;;;;3.50;1.00;;;;;;;;;;5016638;28;20491;-92
2021/08/08 08:20:16;;;;;;;3.97;1.40;;;;;;;;;;5017775;28;20448;-94
2021/08/08 08:22:44;;;;;;;1.43;0.80;;;;;;;;;;5016327;28;20448;-92
2021/08/08 08:25:11;;;;;;;6.20;0.97;;;20.10;99.90;;;;;;5020297;28;20828;-92
2021/08/08 08:27:39;;;;;;;3.17;1.20;;;;;;;;;;5018111;28;20977;-93
2021/08/08 08:30:07;;;;;;;2.20;1.10;;;20.30;99.90;;;;;;5014179;28;20487;-93
2021/08/08 08:33:04;;;;;;;7.50;1.00;;;20.00;99.90;;;;;;5010217;28;20948;-96
2021/08/08 08:35:33;;;;;;;1.43;0.97;;;;;;;;;;5011182;28;20448;-95
2021/08/08 08:38:06;;;;;;;1.50;0.80;;;20.00;99.90;;;;;;4994063;28;20528;-96
2021/08/08 08:40:38;;;;;;;2.00;1.13;;;20.40;99.90;;;;;;5014935;28;20432;-95
2021/08/08 08:43:23;;;;;;;2.03;0.90;;;;;;;;;;5022109;28;20496;-94
2021/08/08 08:45:57;;;;;;;1.70;0.90;;;18.80;99.90;;;;;;5018492;28;20514;-95
2021/08/08 08:48:29;;;;;;;0.93;0.83;;;;;;;;;;5009424;28;20433;-92
2021/08/08 08:51:05;;;;;;;1.70;0.80;;;;;;;;;;5004972;28;20445;-91
2021/08/08 08:53:32;;;;;;;1.97;0.70;;;17.60;99.90;;;;;;5000634;28;20456;-93
2021/08/08 08:56:01;;;;;;;1.57;1.20;;;17.60;99.90;;;;;;4994534;28;20468;-92
2021/08/08 08:58:29;;;;;;;1.67;0.83;;;;;;;;;;4997087;28;20843;-93
2021/08/08 09:00:56;;;;;;;1.50;0.97;;;;;;;;;;5005614;28;20430;-91
2021/08/08 09:03:24;;;;;;;2.57;1.00;;;;;;;;;;5002250;28;20453;-94
2021/08/08 09:05:54;;;;;;;2.70;1.40;;;18.30;99.90;;;;;;5007345;28;20456;-91
2021/08/08 09:08:21;;;;;;;3.20;1.10;;;;;;;;;;5001710;28;20444;-92
2021/08/08 09:11:04;;;;;;;2.00;1.13;;;19.10;99.90;;;;;;5008515;28;20444;-92
2021/08/08 09:13:32;;;;;;;1.40;1.00;;;;;;;;;;5009111;28;20788;-94
2021/08/08 09:15:59;;;;;;;2.70;0.90;;;;;;;;;;5010302;28;20956;-94
2021/08/08 09:18:28;;;;;;;1.63;1.10;;;20.70;99.90;;;;;;5009147;28;20441;-94
2021/08/08 09:20:56;;;;;;;1.67;1.03;;;21.10;99.90;;;;;;5019869;28;20797;-92
2021/08/08 09:23:23;;;;;;;2.00;1.00;;;;;;;;;;5024372;28;20449;-91
2021/08/08 09:26:21;;;;;;;2.27;1.10;;;21.20;99.90;;;;;;5032149;28;20484;-91
2021/08/08 09:28:48;;;;;;;1.80;1.00;;;;;;;;;;5002449;28;20457;-91
2021/08/08 09:31:21;;;;;;;4.07;1.20;;;21.00;99.90;;;;;;4993187;28;20451;-92
2021/08/08 09:33:48;;;;;;;2.50;1.17;;;;;;;;;;4978737;28;20758;-92
2021/08/08 09:36:17;;;;;;;1.03;0.80;;;20.80;99.90;;;;;;4981330;28;20488;-92
2021/08/08 09:38:47;;;;;;;2.10;0.97;;;20.50;99.90;;;;;;4973892;28;20446;-93
2021/08/08 09:41:24;;;;;;;1.40;1.00;;;20.40;99.90;;;;;;4992828;28;20451;-93
2021/08/08 09:43:54;;;;;;;0.93;0.90;;;;;;;;;;4992423;28;20509;-92
2021/08/08 09:46:27;;;;;;;6.87;0.90;;;;;;;;;;5019791;23;20547;-92
2021/08/08 09:48:54;;;;;;;1.27;0.73;;;;;;;;;;4994846;28;20438;-93
2021/08/08 09:51:24;;;;;;;2.30;1.30;;;20.30;99.90;;;;;;4987240;28;20450;-94
2021/08/08 09:53:56;;;;;;;2.30;1.10;;;20.30;99.90;;;;;;4995261;28;20466;-91
2021/08/08 09:56:30;;;;;;;1.23;0.90;;;;;;;;;;4998412;28;20450;-93
2021/08/08 09:59:05;;;;;;;3.03;1.20;;;;;;;;;;5005967;28;20453;-92
2021/08/08 10:01:40;;;;;;;1.73;1.00;;;20.80;99.90;;;;;;5001038;28;21015;-93
2021/08/08 10:04:07;;;;;;;1.40;1.00;;;;;;;;;;5000403;28;20502;-92
2021/08/08 10:06:47;;;;;;;2.20;1.03;;;20.70;99.90;;;;;;4988317;28;20486;-92
2021/08/08 10:09:15;;;;;;;1.60;1.00;;;;;;;;;;4981855;28;20462;-89
2021/08/08 10:14:30;;;;;;;1.70;1.03;;;20.20;99.90;;;;;;5003527;28;20999;-91
2021/08/08 10:17:04;;;;;;;3.07;0.90;;;20.40;99.90;;;;;;5005285;28;20456;-90
2021/08/08 10:25:48;;;;;;;0.90;0.80;;;21.30;99.90;;;;;;4981215;28;20499;-92
2021/08/08 10:28:24;;;;;;;1.57;0.90;;;21.40;99.90;;;;;;4980875;28;20494;-92
2021/08/08 10:30:52;;;;;;;2.87;1.13;;;;;;;;;;4982725;28;20484;-91
2021/08/08 10:33:20;;;;;;;4.13;0.93;;;21.30;99.90;;;;;;4981535;28;20470;-92
2021/08/08 10:35:51;;;;;;;2.13;1.03;;;20.90;99.90;;;;;;4980575;28;20775;-90
2021/08/08 10:38:18;;;;;;;2.10;1.33;;;;;;;;;;4950986;29;20460;-92
2021/08/08 10:40:47;;;;;;;3.23;1.00;;;20.60;99.90;;;;;;4941252;29;20979;-91
2021/08/08 10:43:24;;;;;;;1.20;0.90;;;20.20;99.90;;;;;;4941936;29;20452;-92
2021/08/08 10:45:51;;;;;;;1.70;0.90;;;;;;;;;;4939225;29;20448;-89
2021/08/08 10:48:18;;;;;;;1.37;0.73;;;;;;;;;;4935356;29;20888;-89
2021/08/08 10:50:47;;;;;;;2.00;1.07;;;19.90;99.90;;;;;;4934467;29;20964;-88
2021/08/08 10:53:22;;;;;;;1.87;1.00;;;20.60;99.90;;;;;;4930990;29;20492;-90
2021/08/08 10:56:03;;;;;;;2.50;1.07;;;21.00;99.90;;;;;;4930869;29;20459;-90
2021/08/08 10:58:33;;;;;;;3.10;1.03;;;21.70;99.90;;;;;;4934552;29;20452;-91
2021/08/08 11:01:00;;;;;;;1.23;0.83;;;;;;;;;;4935156;29;20875;-92
2021/08/08 11:03:27;;;;;;;1.37;1.00;;;;;;;;;;4964326;28;20458;-91
2021/08/08 11:05:54;;;;;;;3.50;1.27;;;;;;;;;;4975310;28;20447;-93
2021/08/08 11:08:24;;;;;;;2.20;0.83;;;22.80;99.90;;;;;;4976992;28;20497;-92
2021/08/08 11:10:52;;;;;;;1.83;1.07;;;;;;;;;;4978722;28;20474;-89
2021/08/08 11:13:21;;;;;;;1.73;0.83;;;23.70;99.90;;;;;;4974492;28;20527;-92
2021/08/08 11:15:49;;;;;;;1.80;0.80;;;;;;;;;;4957937;28;20539;-91
2021/08/08 11:18:16;;;;;;;1.53;1.00;;;;;;;;;;4963980;28;20451;-92
2021/08/08 11:20:43;;;;;;;1.23;0.80;;;;;;;;;;4953882;28;20527;-92
2021/08/08 11:23:11;;;;;;;0.90;0.70;;;;;;;;;;4972649;28;20435;-89
2021/08/08 11:25:41;;;;;;;2.10;1.10;;;22.50;99.00;;;;;;4973085;28;20881;-93
2021/08/08 11:28:10;;;;;;;1.93;1.03;;;22.90;99.90;;;;;;4975313;28;20496;-93
2021/08/08 11:30:43;;;;;;;3.00;1.00;;;22.40;97.90;;;;;;4973978;28;20434;-94
2021/08/08 11:33:11;;;;;;;2.80;0.93;;;21.40;99.90;;;;;;4971486;28;20450;-92
2021/08/08 11:35:38;;;;;;;1.10;1.00;;;;;;;;;;4977028;28;20462;-92
2021/08/08 11:38:15;;;;;;;1.73;1.00;;;21.70;99.90;;;;;;4975099;28;20454;-90
2021/08/08 11:40:44;;;;;;;1.97;1.10;;;21.40;98.50;;;;;;4979168;28;20461;-92
2021/08/08 11:43:14;;;;;;;1.50;0.83;;;21.10;99.70;;;;;;4979088;28;20461;-92
2021/08/08 11:45:43;;;;;;;1.10;1.00;;;21.00;99.90;;;;;;4978252;28;20453;-92
2021/08/08 11:48:11;;;;;;;1.83;1.13;;;;;;;;;;4973977;28;21068;-93
2021/08/08 11:50:38;;;;;;;4.13;0.97;;;21.30;99.30;;;;;;4975320;28;20461;-89
2021/08/08 11:53:07;;;;;;;1.90;1.20;;;21.10;99.80;;;;;;4974265;28;20517;-92
2021/08/08 11:55:34;;;;;;;1.20;1.00;;;;;;;;;;4974292;28;20455;-89
2021/08/08 11:58:09;;;;;;;1.80;1.00;;;20.50;99.90;;;;;;4973849;28;21064;-88
2021/08/08 12:00:39;;;;;;;1.40;1.03;;;20.60;99.90;;;;;;4969789;28;20495;-90
2021/08/08 12:03:07;;;;;;;2.03;1.30;;;;;;;;;;4973802;28;20554;-88
2021/08/08 12:05:36;;;;;;;1.40;1.10;;;20.40;99.90;;;;;;4974324;28;20461;-93
2021/08/08 12:08:04;;;;;;;2.10;0.80;;;19.90;99.90;;;;;;4972890;28;20494;-88
2021/08/08 12:10:33;;;;;;;0.70;0.60;;;19.20;99.90;;;;;;4974373;28;20726;-90
2021/08/08 12:13:00;;;;;;;1.43;0.50;;;;;;;;;;4974430;28;20940;-94
2021/08/08 12:15:36;;;;;;;1.93;0.80;;;20.20;99.90;;;;;;4974575;28;20451;-92
2021/08/08 12:18:06;;;;;;;1.07;0.50;;;20.20;99.90;;;;;;4958832;28;20450;-89
2021/08/08 12:20:35;;;;;;;1.27;0.60;;;19.90;99.30;;;;;;4973692;28;20812;-88
2021/08/08 12:23:09;;;;;;;1.73;0.60;;;19.80;99.90;;;;;;4972478;28;20454;-89
2021/08/08 12:25:36;;;;;;;1.73;0.90;;;;;;;;;;4973876;28;20470;-88
2021/08/08 12:28:04;;;;;;;1.23;0.70;;;;;;;;;;4973588;28;20493;-90
2021/08/08 12:30:31;;;;;;;2.20;0.70;;;;;;;;;;4974124;28;20457;-88
2021/08/08 12:33:10;;;;;;;0.97;0.77;;;20.70;99.90;;;;;;4973954;28;20462;-89
2021/08/08 12:35:41;;;;;;;0.80;0.70;;;20.50;99.40;;;;;;4973508;28;20446;-95
2021/08/08 12:38:09;;;;;;;1.87;0.90;;;19.90;99.60;;;;;;4972705;28;20454;-92
2021/08/08 12:40:47;;;;;;;1.47;0.80;;;20.30;99.90;;;;;;4973704;28;20478;-88
2021/08/08 12:43:20;;;;;;;1.00;0.70;;;20.40;98.90;;;;;;4974025;28;20820;-86
2021/08/08 12:45:48;;;;;;;1.70;0.80;;;;;;;;;;4973247;28;20462;-87
2021/08/08 12:48:27;;;;;;;1.70;1.30;;;21.30;99.40;;;;;;4976321;28;20587;-89
2021/08/08 12:50:54;;;;;;;1.20;0.70;;;;;;;;;;4977231;28;20457;-86
2021/08/08 12:53:21;;;;;;;1.07;0.97;;;;;;;;;;4975905;28;20453;-89
2021/08/08 12:55:49;;;;;;;2.43;0.90;;;;;;;;;;4977273;28;20808;-89
2021/08/08 12:58:16;;;;;;;3.60;0.90;;;;;;;;;;4977192;28;20458;-87
2021/08/08 13:00:44;;;;;;;2.40;1.20;;;;;;;;;;4977406;28;20458;-88
2021/08/08 13:03:11;;;;;;;1.87;1.10;;;22.10;98.20;;;;;;4977006;28;20450;-89
2021/08/08 13:05:40;;;;;;;1.70;1.07;;;22.00;99.90;;;;;;4971594;28;20797;-88
2021/08/08 13:08:07;;;;;;;2.20;1.03;;;;;;;;;;4976514;28;20501;-89
2021/08/08 13:10:34;;;;;;;1.20;1.00;;;21.80;98.90;;;;;;4976604;28;20457;-86
2021/08/08 13:13:01;;;;;;;2.93;1.10;;;;;;;;;;4973893;28;20847;-86
2021/08/08 13:15:28;;;;;;;2.63;1.23;;;;;;;;;;4976787;28;20458;-90
2021/08/08 13:17:56;;;;;;;1.13;1.03;;;;;;;;;;4976824;28;20450;-90
2021/08/08 13:20:26;;;;;;;3.53;1.00;;;;;;;;;;4973776;28;20505;-88
2021/08/08 13:22:54;;;;;;;1.53;1.40;;;;;;;;;;4975455;28;20465;-87
2021/08/08 13:25:21;;;;;;;1.70;1.03;;;;;;;;;;4974434;28;20493;-88
2021/08/08 13:27:49;;;;;;;1.13;0.93;;;;;;;;;;4978197;28;20489;-92
2021/08/08 13:30:16;;;;;;;1.47;0.90;;;;;;;;;;4971709;28;20779;-92
2021/08/08 13:32:43;;;;;;;2.30;1.20;;;;;;;;;;4977091;28;20461;-90
2021/08/08 13:35:10;;;;;;;2.10;1.30;;;;;;;;;;4974641;28;20442;-87
2021/08/08 13:37:38;;;;;;;2.40;1.10;;;;;;;;;;4975644;28;20480;-88
2021/08/08 13:40:09;;;;;;;1.20;1.10;;;19.60;99.90;;;;;;4976308;28;20450;-88
2021/08/08 13:42:36;;;;;;;3.83;1.20;;;;;;;;;;4977094;28;20454;-92
2021/08/08 13:45:04;;;;;;;3.43;1.60;;;;;;;;;;4979748;28;20526;-87
2021/08/08 13:47:34;;;;;;;2.87;1.27;;;;;;;;;;4981768;28;20509;-88
2021/08/08 13:50:01;;;;;;;3.67;1.30;;;;;;;;;;4982888;28;20478;-88
2021/08/08 13:52:28;;;;;;;2.83;1.60;;;;;;;;;;4988680;28;20440;-89
2021/08/08 13:54:55;;;;;;;2.63;0.90;;;;;;;;;;4988550;28;20450;-89
2021/08/08 13:57:24;;;;;;;2.57;1.30;;;;;;;;;;4982689;28;20442;-88
2021/08/08 13:59:51;;;;;;;3.27;1.53;;;;;;;;;;4988427;28;20457;-89
2021/08/08 14:02:18;;;;;;;1.57;1.23;;;;;;;;;;4987365;28;20442;-93
2021/08/08 14:04:45;;;;;;;2.17;1.30;;;;;;;;;;4982722;28;20450;-91
2021/08/08 14:07:12;;;;;;;2.20;1.60;;;;;;;;;;4983559;28;20787;-90
2021/08/08 14:09:39;;;;;;;3.87;1.10;;;;;;;;;;4987060;28;20497;-90
2021/08/08 14:12:07;;;;;;;2.67;1.23;;;;;;;;;;4992648;28;20434;-93
2021/08/08 14:14:35;;;;;;;3.90;1.40;;;19.50;99.90;;;;;;4989180;28;20457;-89
2021/08/08 14:17:02;;;;;;;9.03;1.00;;;;;;;;;;4987494;28;20450;-90